Time;durP1;ratioP1;P1;durP2;ratioP2;P2;SDS_P1;SDS_P2;PMS_P1;PMS_P2;Temp;Humidity;BMP_temperature;BMP_pressure;BME280_temperature;BME280_humidity;BME280_pressure;Samples;Min_cycle;Max_cycle;Signal;HPM_P1;HPM_P2
2023/05/16 00:01:09;;;;;;;0.82;0.70;;;11.00;99.90;;;;;;5033427;28;20204;-76
2023/05/16 00:03:38;;;;;;;0.50;0.40;;;10.80;99.90;;;;;;5033911;28;20204;-76
2023/05/16 00:06:05;;;;;;;0.50;0.50;;;10.80;99.90;;;;;;5033266;28;20265;-76
2023/05/16 00:08:32;;;;;;;0.50;0.40;;;10.80;99.90;;;;;;5033633;28;20218;-76
2023/05/16 00:10:58;;;;;;;1.60;0.93;;;10.80;99.90;;;;;;5033751;28;20200;-76
2023/05/16 00:13:25;;;;;;;0.50;0.40;;;10.80;99.90;;;;;;5032872;28;20195;-76
2023/05/16 00:15:53;;;;;;;0.50;0.40;;;10.80;99.90;;;;;;5033192;28;20229;-76
2023/05/16 00:18:21;;;;;;;0.50;0.40;;;10.80;99.90;;;;;;5033259;28;20207;-76
2023/05/16 00:20:49;;;;;;;3.08;1.05;;;10.70;99.90;;;;;;5033564;28;20196;-76
2023/05/16 00:23:16;;;;;;;0.80;0.73;;;10.70;99.90;;;;;;5032952;28;20203;-76
2023/05/16 00:25:43;;;;;;;0.50;0.40;;;10.60;99.90;;;;;;5033294;28;20315;-76
2023/05/16 00:28:10;;;;;;;1.25;1.15;;;10.60;99.90;;;;;;5032834;28;20206;-76
2023/05/16 00:30:37;;;;;;;0.50;0.40;;;10.60;99.90;;;;;;5033025;28;20206;-75
2023/05/16 00:33:03;;;;;;;0.50;0.50;;;10.60;99.90;;;;;;5033192;28;20202;-77
2023/05/16 00:35:30;;;;;;;0.90;0.90;;;10.60;99.90;;;;;;5032731;28;20219;-76
2023/05/16 00:37:58;;;;;;;0.50;0.40;;;10.60;99.90;;;;;;5033080;28;20199;-77
2023/05/16 00:40:25;;;;;;;0.60;0.40;;;10.50;99.90;;;;;;5032794;28;20238;-76
2023/05/16 00:42:52;;;;;;;0.50;0.40;;;10.50;99.90;;;;;;5032792;28;20291;-76
2023/05/16 00:45:19;;;;;;;0.60;0.60;;;10.40;99.90;;;;;;5033052;28;20734;-77
2023/05/16 00:47:46;;;;;;;0.88;0.88;;;10.40;99.90;;;;;;5032743;28;20195;-77
2023/05/16 00:50:13;;;;;;;0.50;0.40;;;10.40;99.90;;;;;;5032699;28;20291;-76
2023/05/16 00:52:40;;;;;;;0.50;0.50;;;10.30;99.90;;;;;;5032048;28;20192;-76
2023/05/16 00:55:10;;;;;;;0.50;0.40;;;10.30;99.90;;;;;;5032629;28;20586;-77
2023/05/16 00:57:37;;;;;;;0.50;0.40;;;10.30;99.90;;;;;;5032343;28;20302;-77
2023/05/16 01:00:08;;;;;;;0.60;0.40;;;10.20;99.90;;;;;;5032932;28;20583;-77
2023/05/16 01:02:35;;;;;;;2.17;1.65;;;10.20;99.90;;;;;;5035037;28;20269;-77
2023/05/16 01:05:02;;;;;;;0.50;0.40;;;10.20;99.90;;;;;;5045080;28;20191;-77
2023/05/16 01:07:29;;;;;;;1.45;0.60;;;10.20;99.90;;;;;;5032201;28;20217;-76
2023/05/16 01:09:57;;;;;;;0.90;0.75;;;10.10;99.90;;;;;;5032212;28;20253;-76
2023/05/16 01:12:34;;;;;;;0.50;0.40;;;10.00;99.90;;;;;;5034027;28;20195;-76
2023/05/16 01:15:08;;;;;;;0.70;0.68;;;10.00;99.90;;;;;;5052136;28;20215;-76
2023/05/16 01:17:43;;;;;;;2.88;1.92;;;10.00;99.90;;;;;;5032173;28;20226;-76
2023/05/16 01:20:17;;;;;;;0.70;0.68;;;9.90;99.90;;;;;;5040306;28;20285;-76
2023/05/16 01:22:56;;;;;;;0.50;0.50;;;9.80;99.90;;;;;;5051965;28;20199;-76
2023/05/16 01:25:37;;;;;;;1.02;0.93;;;9.80;99.90;;;;;;5051948;28;20194;-76
2023/05/16 01:28:07;;;;;;;0.50;0.40;;;9.80;99.90;;;;;;5051829;28;20205;-77
2023/05/16 01:30:37;;;;;;;2.45;1.02;;;9.60;99.90;;;;;;5051708;28;20573;-76
2023/05/16 01:33:04;;;;;;;0.50;0.40;;;9.60;99.90;;;;;;5051806;28;20251;-76
2023/05/16 01:35:31;;;;;;;0.50;0.40;;;9.60;99.90;;;;;;5040385;28;20215;-76
2023/05/16 01:38:04;;;;;;;0.55;0.40;;;9.60;99.90;;;;;;5031945;28;20578;-76
2023/05/16 01:40:38;;;;;;;0.50;0.40;;;9.60;99.90;;;;;;5031640;28;20552;-76
2023/05/16 01:43:14;;;;;;;0.93;0.93;;;9.40;99.90;;;;;;5031526;28;20199;-77
2023/05/16 01:45:47;;;;;;;0.70;0.70;;;9.40;99.90;;;;;;5035774;28;20292;-76
2023/05/16 01:48:21;;;;;;;0.55;0.52;;;9.40;99.90;;;;;;5051408;28;20209;-76
2023/05/16 01:50:54;;;;;;;1.02;0.93;;;9.40;99.90;;;;;;5051545;28;20212;-77
2023/05/16 01:53:25;;;;;;;0.50;0.40;;;9.40;99.90;;;;;;5051146;28;20209;-77
2023/05/16 01:55:52;;;;;;;0.50;0.40;;;9.30;99.90;;;;;;5051212;28;20220;-77
2023/05/16 01:58:23;;;;;;;0.50;0.40;;;9.30;99.90;;;;;;5051649;28;20209;-77
2023/05/16 02:00:52;;;;;;;0.50;0.40;;;9.30;99.90;;;;;;5051604;28;20203;-76
2023/05/16 02:03:19;;;;;;;0.50;0.40;;;9.30;99.90;;;;;;5050845;28;20198;-77
2023/05/16 02:05:46;;;;;;;0.50;0.40;;;9.30;99.90;;;;;;5037586;28;20306;-77
2023/05/16 02:08:13;;;;;;;0.50;0.40;;;9.30;99.90;;;;;;5031399;28;20726;-76
2023/05/16 02:10:40;;;;;;;0.50;0.40;;;9.30;99.90;;;;;;5031827;28;20199;-77
2023/05/16 02:13:07;;;;;;;0.50;0.40;;;9.20;99.90;;;;;;5030985;28;20203;-77
2023/05/16 02:15:35;;;;;;;0.57;0.55;;;9.30;99.90;;;;;;5031839;28;20211;-77
2023/05/16 02:18:02;;;;;;;0.50;0.40;;;9.30;99.90;;;;;;5031381;28;20195;-76
2023/05/16 02:20:29;;;;;;;0.50;0.40;;;9.40;99.90;;;;;;5031109;28;20200;-75
2023/05/16 02:22:56;;;;;;;0.50;0.40;;;9.40;99.90;;;;;;5031271;28;20206;-75
2023/05/16 02:25:23;;;;;;;0.50;0.40;;;9.40;99.90;;;;;;5031393;28;20195;-76
2023/05/16 02:27:50;;;;;;;0.50;0.40;;;9.30;99.90;;;;;;5031296;28;20689;-77
2023/05/16 02:30:17;;;;;;;0.50;0.40;;;9.30;99.90;;;;;;5031139;28;20206;-77
2023/05/16 02:32:45;;;;;;;0.50;0.40;;;9.30;99.90;;;;;;5031384;28;20207;-77
2023/05/16 02:35:12;;;;;;;0.50;0.40;;;9.30;99.90;;;;;;5031458;28;20199;-77
2023/05/16 02:37:39;;;;;;;0.50;0.38;;;9.30;99.90;;;;;;5031380;28;20602;-77
2023/05/16 02:40:07;;;;;;;0.50;0.40;;;9.20;99.90;;;;;;5030792;28;20291;-77
2023/05/16 02:42:34;;;;;;;0.50;0.40;;;9.10;99.90;;;;;;5031333;28;20199;-77
2023/05/16 02:45:01;;;;;;;0.50;0.50;;;9.20;99.90;;;;;;5031445;28;20203;-77
2023/05/16 02:47:28;;;;;;;0.50;0.43;;;9.20;99.90;;;;;;5030858;28;20722;-76
2023/05/16 02:49:56;;;;;;;1.15;0.68;;;9.20;99.90;;;;;;5031024;28;20201;-76
2023/05/16 02:52:23;;;;;;;0.70;0.70;;;9.10;99.90;;;;;;5030696;28;20685;-77
2023/05/16 02:54:49;;;;;;;0.50;0.40;;;9.10;99.90;;;;;;5030911;28;20206;-77
2023/05/16 02:57:16;;;;;;;0.50;0.40;;;9.20;99.90;;;;;;5082768;22;20223;-77
2023/05/16 02:59:43;;;;;;;0.50;0.40;;;9.10;99.90;;;;;;5029925;28;20281;-81
2023/05/16 03:02:10;;;;;;;0.60;0.60;;;9.10;99.90;;;;;;5044607;28;20205;-79
2023/05/16 03:04:36;;;;;;;0.50;0.40;;;9.10;99.90;;;;;;5041339;28;20211;-81
2023/05/16 03:07:05;;;;;;;0.50;0.40;;;9.10;99.90;;;;;;5041104;28;20225;-81
2023/05/16 03:09:31;;;;;;;0.50;0.40;;;9.00;99.90;;;;;;5042749;28;20199;-79
2023/05/16 03:11:59;;;;;;;0.50;0.40;;;9.00;99.90;;;;;;5044769;28;20198;-80
2023/05/16 03:14:26;;;;;;;0.88;0.80;;;9.00;99.90;;;;;;5043026;28;20652;-76
2023/05/16 03:16:52;;;;;;;0.50;0.40;;;8.90;99.90;;;;;;5043585;28;20593;-80
2023/05/16 03:19:19;;;;;;;0.50;0.40;;;9.00;99.90;;;;;;5052871;28;20206;-79
2023/05/16 03:21:46;;;;;;;0.50;0.40;;;9.00;99.90;;;;;;5044630;28;20621;-80
2023/05/16 03:24:14;;;;;;;0.50;0.40;;;8.90;99.90;;;;;;5045354;28;20206;-81
2023/05/16 03:26:41;;;;;;;4.10;0.90;;;8.90;99.90;;;;;;5036834;28;20207;-80
2023/05/16 03:29:08;;;;;;;0.50;0.47;;;8.80;99.90;;;;;;5046002;28;20634;-81
2023/05/16 03:31:35;;;;;;;0.50;0.40;;;8.80;99.90;;;;;;5048725;28;20222;-81
2023/05/16 03:34:02;;;;;;;0.50;0.40;;;8.80;99.90;;;;;;5049719;28;20272;-79
2023/05/16 03:36:29;;;;;;;0.50;0.40;;;8.80;99.90;;;;;;5038026;28;20216;-79
2023/05/16 03:38:56;;;;;;;0.50;0.40;;;8.70;99.90;;;;;;5048977;28;20202;-78
2023/05/16 03:41:24;;;;;;;0.50;0.40;;;8.60;99.90;;;;;;5048877;28;20284;-81
2023/05/16 03:43:51;;;;;;;0.50;0.50;;;8.60;99.90;;;;;;5051178;28;20210;-78
2023/05/16 03:46:18;;;;;;;0.50;0.40;;;8.50;99.90;;;;;;5057891;28;20570;-80
2023/05/16 03:48:45;;;;;;;0.50;0.40;;;8.40;99.90;;;;;;5057683;28;20217;-80
2023/05/16 03:51:12;;;;;;;2.63;2.53;;;8.30;99.90;;;;;;5050554;28;20221;-79
2023/05/16 03:53:38;;;;;;;0.50;0.40;;;8.20;99.90;;;;;;5040873;28;20654;-80
2023/05/16 03:56:05;;;;;;;0.50;0.40;;;8.10;99.90;;;;;;5050038;28;20226;-78
2023/05/16 03:58:33;;;;;;;0.50;0.50;;;8.00;99.90;;;;;;5048427;28;20202;-80
2023/05/16 04:01:00;;;;;;;0.65;0.63;;;8.00;99.90;;;;;;5050465;28;20583;-79
2023/05/16 04:03:29;;;;;;;0.98;0.68;;;8.00;99.90;;;;;;5045893;28;20574;-79
2023/05/16 04:05:56;;;;;;;0.50;0.40;;;8.00;99.90;;;;;;5050023;28;20202;-80
2023/05/16 04:08:22;;;;;;;1.80;1.70;;;7.90;99.90;;;;;;5055808;28;20222;-79
2023/05/16 04:10:49;;;;;;;0.50;0.40;;;7.90;99.90;;;;;;5057955;28;20203;-80
2023/05/16 04:13:16;;;;;;;0.50;0.40;;;7.90;99.90;;;;;;5055476;28;20199;-78
2023/05/16 04:15:44;;;;;;;0.50;0.40;;;7.80;99.90;;;;;;5061289;28;20190;-82
2023/05/16 04:18:11;;;;;;;0.50;0.40;;;7.80;99.90;;;;;;5062243;28;20207;-80
2023/05/16 04:20:37;;;;;;;0.50;0.40;;;7.70;99.90;;;;;;5067080;28;20186;-82
2023/05/16 04:23:04;;;;;;;0.50;0.40;;;7.60;99.90;;;;;;5067103;28;20205;-79
2023/05/16 04:25:31;;;;;;;0.50;0.40;;;7.60;99.90;;;;;;5066798;28;20225;-83
2023/05/16 04:27:58;;;;;;;0.50;0.40;;;7.60;99.90;;;;;;5055116;28;20219;-80
2023/05/16 04:30:25;;;;;;;0.50;0.40;;;7.70;99.90;;;;;;5047092;28;20203;-79
2023/05/16 04:32:53;;;;;;;0.50;0.40;;;7.80;99.90;;;;;;5048419;28;20194;-80
2023/05/16 04:35:21;;;;;;;0.50;0.40;;;7.80;99.90;;;;;;5040935;28;20206;-82
2023/05/16 04:37:48;;;;;;;0.50;0.40;;;7.80;99.90;;;;;;5037083;28;20219;-80
2023/05/16 04:40:16;;;;;;;0.50;0.40;;;7.70;99.90;;;;;;5044653;28;20682;-80
2023/05/16 04:42:42;;;;;;;0.50;0.40;;;7.70;99.90;;;;;;5040783;28;20347;-80
2023/05/16 04:45:10;;;;;;;0.50;0.40;;;7.70;99.90;;;;;;5041817;28;20725;-80
2023/05/16 04:47:37;;;;;;;0.50;0.40;;;7.70;99.90;;;;;;5048050;28;20613;-80
2023/05/16 04:50:08;;;;;;;0.50;0.40;;;7.80;99.90;;;;;;5043879;28;20210;-80
2023/05/16 04:52:35;;;;;;;0.50;0.40;;;7.80;99.90;;;;;;5040141;28;20195;-79
2023/05/16 04:55:02;;;;;;;0.82;0.82;;;7.80;99.90;;;;;;5042420;28;20391;-80
2023/05/16 04:57:29;;;;;;;0.50;0.40;;;7.80;99.90;;;;;;5042656;28;20274;-81
2023/05/16 04:59:56;;;;;;;0.50;0.40;;;7.80;99.90;;;;;;5044104;28;20206;-80
2023/05/16 05:02:22;;;;;;;0.50;0.40;;;7.80;99.90;;;;;;5043759;28;20286;-81
2023/05/16 05:04:50;;;;;;;0.50;0.40;;;7.90;99.90;;;;;;5048161;28;20655;-81
2023/05/16 05:07:18;;;;;;;0.50;0.40;;;7.80;99.90;;;;;;5043936;28;20219;-80
2023/05/16 05:09:45;;;;;;;0.80;0.60;;;7.80;99.90;;;;;;5046915;28;20565;-80
2023/05/16 05:12:12;;;;;;;0.50;0.40;;;7.80;99.90;;;;;;5047757;28;20257;-80
2023/05/16 05:14:39;;;;;;;0.50;0.40;;;7.80;99.90;;;;;;5045044;28;20250;-79
2023/05/16 05:17:05;;;;;;;0.50;0.40;;;7.80;99.90;;;;;;5044672;28;20229;-81
2023/05/16 05:19:32;;;;;;;0.50;0.50;;;7.80;99.90;;;;;;5045298;28;20238;-81
2023/05/16 05:21:59;;;;;;;0.50;0.50;;;7.80;99.90;;;;;;5046428;28;20202;-80
2023/05/16 05:24:28;;;;;;;0.50;0.40;;;7.90;99.90;;;;;;5043474;28;20606;-81
2023/05/16 05:26:55;;;;;;;0.50;0.40;;;7.90;99.90;;;;;;5052226;28;20215;-81
2023/05/16 05:29:21;;;;;;;0.50;0.40;;;8.00;99.90;;;;;;5045265;28;20191;-80
2023/05/16 05:31:48;;;;;;;0.50;0.40;;;8.10;99.90;;;;;;5047146;28;20206;-82
2023/05/16 05:34:15;;;;;;;0.80;0.50;;;8.20;99.90;;;;;;5047953;28;20202;-81
2023/05/16 05:36:42;;;;;;;0.50;0.40;;;8.20;99.90;;;;;;5045075;28;20305;-82
2023/05/16 05:39:09;;;;;;;0.50;0.50;;;8.20;99.90;;;;;;5043880;28;20206;-83
2023/05/16 05:41:39;;;;;;;0.50;0.40;;;8.30;99.90;;;;;;5046189;28;20352;-82
2023/05/16 05:44:06;;;;;;;0.50;0.40;;;8.30;99.90;;;;;;5048396;28;20210;-80
2023/05/16 05:46:34;;;;;;;0.50;0.40;;;8.50;99.90;;;;;;5045820;28;20694;-82
2023/05/16 05:49:01;;;;;;;0.50;0.40;;;8.60;99.90;;;;;;5044234;28;20196;-80
2023/05/16 05:51:28;;;;;;;0.50;0.40;;;8.80;99.90;;;;;;5043720;28;20210;-82
2023/05/16 05:53:55;;;;;;;0.50;0.40;;;8.90;99.90;;;;;;5047678;28;20201;-81
2023/05/16 05:56:23;;;;;;;0.50;0.40;;;9.00;99.90;;;;;;5046700;28;20214;-82
2023/05/16 05:58:51;;;;;;;0.50;0.40;;;9.20;99.90;;;;;;5036726;28;20256;-82
2023/05/16 06:01:19;;;;;;;1.98;1.88;;;9.40;99.90;;;;;;5043935;28;20275;-81
2023/05/16 06:03:46;;;;;;;0.50;0.40;;;10.10;99.90;;;;;;5046088;28;20191;-82
2023/05/16 06:06:14;;;;;;;0.50;0.40;;;11.20;99.90;;;;;;5046892;28;20203;-82
2023/05/16 06:08:41;;;;;;;0.50;0.40;;;12.60;99.90;;;;;;5043469;28;20260;-82
2023/05/16 06:11:08;;;;;;;0.50;0.30;;;13.90;99.90;;;;;;5042382;28;20206;-80
2023/05/16 06:13:35;;;;;;;0.60;0.50;;;15.00;99.90;;;;;;5042533;28;20888;-81
2023/05/16 06:16:03;;;;;;;0.50;0.30;;;16.40;99.90;;;;;;5045719;28;20441;-82
2023/05/16 06:18:30;;;;;;;0.50;0.30;;;17.40;99.90;;;;;;5044884;28;20481;-81
2023/05/16 06:20:57;;;;;;;0.50;0.30;;;18.30;99.90;;;;;;5042511;28;20442;-83
2023/05/16 06:23:23;;;;;;;1.17;0.97;;;19.40;99.90;;;;;;5042061;28;20446;-79
2023/05/16 06:25:50;;;;;;;0.50;0.40;;;20.00;99.90;;;;;;5044745;28;20441;-82
2023/05/16 06:28:17;;;;;;;0.50;0.30;;;20.70;99.90;;;;;;5045715;28;20460;-82
2023/05/16 06:30:46;;;;;;;0.50;0.30;;;21.20;98.80;;;;;;5037572;28;20453;-81
2023/05/16 06:33:14;;;;;;;0.50;0.30;;;21.10;95.20;;;;;;5046231;28;21019;-83
2023/05/16 06:35:41;;;;;;;0.50;0.30;;;21.40;94.60;;;;;;5046615;28;20445;-83
2023/05/16 06:38:08;;;;;;;0.50;0.40;;;21.40;95.90;;;;;;5049843;28;20488;-83
2023/05/16 06:40:35;;;;;;;0.60;0.50;;;21.60;93.30;;;;;;5041708;28;20465;-83
2023/05/16 06:43:02;;;;;;;0.60;0.60;;;21.40;92.40;;;;;;5042314;28;20450;-83
2023/05/16 06:45:29;;;;;;;0.50;0.30;;;20.60;90.60;;;;;;5042041;28;20460;-81
2023/05/16 06:47:56;;;;;;;0.60;0.60;;;20.40;90.80;;;;;;5045633;28;20520;-83
2023/05/16 06:50:24;;;;;;;0.50;0.30;;;20.60;93.20;;;;;;5045733;28;20441;-83
2023/05/16 06:52:51;;;;;;;0.50;0.30;;;20.90;91.70;;;;;;5045648;28;20450;-83
2023/05/16 06:55:17;;;;;;;0.50;0.30;;;21.40;90.50;;;;;;5046247;28;20529;-83
2023/05/16 06:57:44;;;;;;;0.50;0.30;;;22.00;87.90;;;;;;5047333;28;20508;-82
2023/05/16 07:00:12;;;;;;;0.50;0.40;;;22.60;88.10;;;;;;5049528;28;20575;-83
2023/05/16 07:02:39;;;;;;;0.50;0.40;;;23.50;84.10;;;;;;5047228;28;20445;-84
2023/05/16 07:05:07;;;;;;;0.50;0.30;;;24.10;79.80;;;;;;5045708;28;20937;-83
2023/05/16 07:07:35;;;;;;;6.77;0.50;;;24.30;74.30;;;;;;5046133;28;21014;-82
2023/05/16 07:10:02;;;;;;;0.50;0.30;;;24.90;75.10;;;;;;5046392;28;20444;-84
2023/05/16 07:12:29;;;;;;;0.50;0.30;;;25.30;77.10;;;;;;5048879;28;20446;-83
2023/05/16 07:14:55;;;;;;;0.50;0.30;;;26.50;70.20;;;;;;5045263;28;20441;-83
2023/05/16 07:17:22;;;;;;;2.73;2.63;;;26.90;65.20;;;;;;5053078;28;20488;-80
2023/05/16 07:19:50;;;;;;;0.70;0.70;;;25.60;65.10;;;;;;5052536;28;20445;-80
2023/05/16 07:22:16;;;;;;;0.50;0.30;;;25.20;59.50;;;;;;5053045;28;20463;-80
2023/05/16 07:24:44;;;;;;;0.50;0.30;;;24.80;63.40;;;;;;5051623;28;20441;-82
2023/05/16 07:27:12;;;;;;;0.50;0.30;;;24.70;63.30;;;;;;5045813;28;20472;-81
2023/05/16 07:29:38;;;;;;;5.00;0.80;;;25.40;66.00;;;;;;5046877;28;20453;-83
2023/05/16 07:32:06;;;;;;;0.50;0.50;;;25.60;61.60;;;;;;5049450;28;20441;-83
2023/05/16 07:34:33;;;;;;;7.87;1.57;;;25.70;59.70;;;;;;5048736;28;20463;-81
2023/05/16 07:37:00;;;;;;;0.50;0.30;;;26.10;58.80;;;;;;5051470;28;20477;-81
2023/05/16 07:39:26;;;;;;;0.50;0.30;;;26.10;60.80;;;;;;5054433;28;20447;-82
2023/05/16 07:41:55;;;;;;;3.90;1.57;;;26.00;59.60;;;;;;5053031;28;20430;-81
2023/05/16 07:44:22;;;;;;;0.50;0.30;;;25.00;58.20;;;;;;5054523;28;20452;-80
2023/05/16 07:46:49;;;;;;;0.50;0.30;;;25.00;58.50;;;;;;5063061;28;20460;-83
2023/05/16 07:49:16;;;;;;;0.50;0.30;;;25.10;58.40;;;;;;5051470;28;20467;-80
2023/05/16 07:51:43;;;;;;;0.50;0.30;;;25.30;58.10;;;;;;5053707;28;20445;-81
2023/05/16 07:54:09;;;;;;;2.03;0.60;;;25.60;59.40;;;;;;5052376;28;20426;-81
2023/05/16 07:56:36;;;;;;;0.50;0.30;;;26.00;60.20;;;;;;5051220;28;20472;-83
2023/05/16 07:59:05;;;;;;;0.50;0.30;;;27.00;57.50;;;;;;5044797;28;20454;-82
2023/05/16 08:01:32;;;;;;;0.50;0.30;;;26.60;55.90;;;;;;5052622;28;20438;-82
2023/05/16 08:03:59;;;;;;;0.50;0.30;;;24.70;57.10;;;;;;5035625;28;20449;-79
2023/05/16 08:06:25;;;;;;;0.50;0.30;;;23.00;57.00;;;;;;5051690;28;20453;-83
2023/05/16 08:08:52;;;;;;;0.50;0.40;;;21.70;59.20;;;;;;5048125;28;20449;-82
2023/05/16 08:11:21;;;;;;;0.70;0.60;;;20.90;59.90;;;;;;5049737;28;20830;-78
2023/05/16 08:13:48;;;;;;;0.50;0.40;;;20.60;61.80;;;;;;5044028;28;20499;-82
2023/05/16 08:16:16;;;;;;;0.50;0.30;;;20.40;62.80;;;;;;5044806;28;20442;-82
2023/05/16 08:18:43;;;;;;;0.53;0.37;;;19.90;63.60;;;;;;5045149;28;20478;-83
2023/05/16 08:21:10;;;;;;;0.50;0.30;;;19.20;67.60;;;;;;5042931;28;20446;-82
2023/05/16 08:23:36;;;;;;;0.50;0.30;;;19.00;69.00;;;;;;5045000;28;20442;-80
2023/05/16 08:26:04;;;;;;;0.50;0.30;;;19.00;69.30;;;;;;5044611;28;20446;-82
2023/05/16 08:28:31;;;;;;;0.50;0.30;;;19.50;70.40;;;;;;5043946;28;20548;-81
2023/05/16 08:30:57;;;;;;;0.50;0.30;;;20.70;69.70;;;;;;5048157;28;20439;-82
2023/05/16 08:33:25;;;;;;;0.50;0.30;;;22.40;63.90;;;;;;5048221;28;20556;-79
2023/05/16 08:35:52;;;;;;;0.50;0.30;;;22.60;62.70;;;;;;5047818;28;20444;-82
2023/05/16 08:38:19;;;;;;;0.50;0.30;;;21.80;60.70;;;;;;5047766;28;20499;-81
2023/05/16 08:40:46;;;;;;;0.50;0.30;;;21.00;63.80;;;;;;5046455;28;20445;-79
2023/05/16 08:43:13;;;;;;;0.50;0.30;;;20.90;66.70;;;;;;5041502;28;20441;-82
2023/05/16 08:45:41;;;;;;;0.50;0.30;;;20.50;64.70;;;;;;5047020;28;20816;-82
2023/05/16 08:48:09;;;;;;;0.50;0.30;;;19.70;66.00;;;;;;5048917;28;20465;-81
2023/05/16 08:50:38;;;;;;;0.50;0.30;;;18.50;64.40;;;;;;5039289;28;20450;-82
2023/05/16 08:53:06;;;;;;;0.50;0.30;;;18.90;67.80;;;;;;5047512;28;20445;-81
2023/05/16 08:55:34;;;;;;;0.50;0.37;;;20.40;67.70;;;;;;5047410;28;20449;-81
2023/05/16 08:58:02;;;;;;;0.50;0.40;;;21.60;63.80;;;;;;5034047;22;20853;-78
2023/05/16 09:00:30;;;;;;;0.50;0.40;;;22.80;63.20;;;;;;5019526;28;20647;-77
2023/05/16 09:02:57;;;;;;;0.50;0.30;;;24.20;61.30;;;;;;5021781;28;20541;-76
2023/05/16 09:05:24;;;;;;;0.50;0.30;;;25.10;61.60;;;;;;5021115;28;20446;-78
2023/05/16 09:07:52;;;;;;;0.50;0.30;;;26.40;59.30;;;;;;5029572;28;20458;-77
2023/05/16 09:10:19;;;;;;;0.50;0.30;;;26.70;59.10;;;;;;5021230;28;20439;-77
2023/05/16 09:12:46;;;;;;;0.50;0.30;;;27.60;56.60;;;;;;5022086;28;20443;-77
2023/05/16 09:15:13;;;;;;;0.50;0.30;;;28.40;54.10;;;;;;5023803;28;20478;-77
2023/05/16 09:17:43;;;;;;;0.50;0.30;;;28.80;52.90;;;;;;5015706;28;20478;-76
2023/05/16 09:20:11;;;;;;;0.50;0.30;;;28.50;50.40;;;;;;5019635;28;21152;-76
2023/05/16 09:22:38;;;;;;;0.60;0.50;;;28.20;49.70;;;;;;5020347;28;20438;-76
2023/05/16 09:25:07;;;;;;;0.50;0.30;;;27.90;50.80;;;;;;5020826;28;20442;-77
2023/05/16 09:27:34;;;;;;;0.50;0.30;;;26.90;53.60;;;;;;5020449;28;20462;-77
2023/05/16 09:30:01;;;;;;;1.63;1.53;;;26.80;55.80;;;;;;5020486;28;20940;-77
2023/05/16 09:32:28;;;;;;;7.23;0.80;;;26.60;52.20;;;;;;5020277;28;20455;-76
2023/05/16 09:34:57;;;;;;;0.50;0.30;;;25.80;54.90;;;;;;5022292;28;20435;-76
2023/05/16 09:37:24;;;;;;;0.50;0.30;;;24.90;54.50;;;;;;5023045;28;20528;-76
2023/05/16 09:39:53;;;;;;;0.50;0.30;;;24.30;57.90;;;;;;5021107;28;20504;-76
2023/05/16 09:42:22;;;;;;;0.50;0.30;;;24.50;56.90;;;;;;5019502;28;20957;-76
2023/05/16 09:44:51;;;;;;;0.50;0.30;;;25.00;57.10;;;;;;5021037;28;20455;-76
2023/05/16 09:47:18;;;;;;;0.50;0.30;;;24.60;56.10;;;;;;5023002;28;20470;-76
2023/05/16 09:49:47;;;;;;;0.50;0.30;;;24.40;54.00;;;;;;5022124;28;20452;-76
2023/05/16 09:52:15;;;;;;;0.50;0.30;;;23.40;54.60;;;;;;5016032;28;20821;-76
2023/05/16 09:54:43;;;;;;;2.10;1.17;;;22.30;55.00;;;;;;5023031;28;20461;-76
2023/05/16 09:57:10;;;;;;;0.60;0.60;;;21.20;57.70;;;;;;5022933;28;20496;-76
2023/05/16 09:59:40;;;;;;;0.50;0.40;;;20.00;57.70;;;;;;5023136;28;20595;-78
2023/05/16 10:02:07;;;;;;;0.60;0.30;;;19.10;61.80;;;;;;5012363;28;20449;-75
2023/05/16 10:04:35;;;;;;;0.50;0.40;;;18.40;64.90;;;;;;5019560;28;20445;-75
2023/05/16 10:07:03;;;;;;;0.50;0.30;;;17.70;68.50;;;;;;5027413;28;20945;-75
2023/05/16 10:09:32;;;;;;;2.20;2.10;;;17.60;71.50;;;;;;5019380;28;20804;-76
2023/05/16 10:12:03;;;;;;;0.50;0.30;;;17.70;73.40;;;;;;5018767;28;20522;-76
2023/05/16 10:14:33;;;;;;;2.30;0.50;;;17.80;72.70;;;;;;5019350;28;20807;-76
2023/05/16 10:17:03;;;;;;;1.53;0.50;;;18.20;74.10;;;;;;5021793;28;20446;-76
2023/05/16 10:19:32;;;;;;;0.50;0.30;;;18.20;70.60;;;;;;5022765;28;20565;-76
2023/05/16 10:22:05;;;;;;;1.30;1.17;;;17.80;71.20;;;;;;5022488;28;20441;-76
2023/05/16 10:24:39;;;;;;;0.50;0.30;;;17.60;74.00;;;;;;5022851;28;20469;-75
2023/05/16 10:27:06;;;;;;;0.50;0.40;;;17.70;74.50;;;;;;5010550;28;20458;-76
2023/05/16 10:29:33;;;;;;;0.50;0.30;;;17.60;78.40;;;;;;5019463;28;20466;-77
2023/05/16 10:32:03;;;;;;;0.50;0.37;;;17.50;79.40;;;;;;5021349;28;20491;-76
2023/05/16 10:34:30;;;;;;;0.50;0.30;;;17.70;77.20;;;;;;5022523;28;20445;-75
2023/05/16 10:36:57;;;;;;;0.50;0.40;;;17.80;77.50;;;;;;5020234;28;20805;-75
2023/05/16 10:39:24;;;;;;;0.50;0.40;;;18.10;76.10;;;;;;5019013;28;20473;-76
2023/05/16 10:41:51;;;;;;;0.87;0.83;;;18.40;75.00;;;;;;5020285;28;20450;-76
2023/05/16 10:44:18;;;;;;;0.50;0.30;;;18.30;71.40;;;;;;5022747;28;20794;-76
2023/05/16 10:46:47;;;;;;;0.50;0.30;;;18.20;73.60;;;;;;5014001;28;20964;-76
2023/05/16 10:49:23;;;;;;;0.70;0.50;;;17.80;72.50;;;;;;5022405;28;20508;-76
2023/05/16 10:52:04;;;;;;;0.50;0.40;;;17.60;75.70;;;;;;5020817;28;20953;-75
2023/05/16 10:54:35;;;;;;;3.03;2.30;;;17.50;79.70;;;;;;5019094;28;20447;-76
2023/05/16 10:57:05;;;;;;;0.60;0.53;;;17.50;81.50;;;;;;5021336;28;20453;-76
2023/05/16 10:59:41;;;;;;;0.50;0.30;;;17.40;82.30;;;;;;5023068;28;20504;-77
2023/05/16 11:02:23;;;;;;;0.60;0.50;;;18.30;83.40;;;;;;5011152;28;20443;-77
2023/05/16 11:04:52;;;;;;;0.50;0.30;;;19.70;78.40;;;;;;5020093;28;20455;-77
2023/05/16 11:07:21;;;;;;;3.03;1.17;;;20.90;77.00;;;;;;5022268;28;20464;-76
2023/05/16 11:10:03;;;;;;;0.70;0.50;;;22.00;70.70;;;;;;5021331;28;20449;-77
2023/05/16 11:12:37;;;;;;;0.60;0.40;;;23.40;70.00;;;;;;5018609;28;20938;-77
2023/05/16 11:15:18;;;;;;;0.50;0.30;;;24.50;65.40;;;;;;5021777;28;20452;-77
2023/05/16 11:17:45;;;;;;;0.50;0.30;;;25.00;65.70;;;;;;5022646;28;20503;-77
2023/05/16 11:20:27;;;;;;;0.50;0.30;;;25.10;60.40;;;;;;5019264;28;20443;-77
2023/05/16 11:23:18;;;;;;;0.50;0.30;;;24.30;58.50;;;;;;5019974;28;20583;-77
2023/05/16 11:25:47;;;;;;;0.50;0.30;;;23.70;60.70;;;;;;5022073;28;20450;-76
2023/05/16 11:28:14;;;;;;;0.50;0.30;;;22.80;59.50;;;;;;5018655;28;20588;-77
2023/05/16 11:30:43;;;;;;;0.50;0.30;;;21.30;59.60;;;;;;5018621;28;20497;-77
2023/05/16 11:33:11;;;;;;;0.50;0.30;;;20.30;63.50;;;;;;5018753;28;20453;-76
2023/05/16 11:35:39;;;;;;;0.50;0.30;;;19.20;67.20;;;;;;5026318;28;20947;-77
2023/05/16 11:38:06;;;;;;;0.50;0.30;;;17.90;71.00;;;;;;5023751;28;20462;-77
2023/05/16 11:40:34;;;;;;;0.50;0.30;;;16.70;75.50;;;;;;5025807;28;20865;-76
2023/05/16 11:43:02;;;;;;;0.50;0.37;;;16.20;92.70;;;;;;5023144;28;20438;-76
2023/05/16 11:45:29;;;;;;;0.50;0.30;;;15.80;93.90;;;;;;5022001;28;20455;-76
2023/05/16 11:48:02;;;;;;;0.60;0.60;;;15.60;99.90;;;;;;5023393;28;20463;-76
2023/05/16 11:50:30;;;;;;;0.50;0.40;;;15.50;97.90;;;;;;5025483;28;20438;-78
2023/05/16 11:52:58;;;;;;;0.50;0.30;;;15.90;99.90;;;;;;5023184;28;20799;-76
2023/05/16 11:55:28;;;;;;;0.50;0.30;;;17.20;96.70;;;;;;5021828;28;20454;-77
2023/05/16 11:57:57;;;;;;;0.50;0.30;;;19.00;82.10;;;;;;5022554;28;20533;-77
2023/05/16 12:00:25;;;;;;;0.50;0.30;;;20.80;74.50;;;;;;5025218;28;20439;-77
2023/05/16 12:02:53;;;;;;;0.83;0.60;;;22.50;73.50;;;;;;5024776;28;20492;-77
2023/05/16 12:05:24;;;;;;;0.50;0.30;;;23.20;63.90;;;;;;5021841;28;20451;-77
2023/05/16 12:07:53;;;;;;;1.10;0.57;;;23.70;67.70;;;;;;5022049;28;21061;-77
2023/05/16 12:10:21;;;;;;;0.50;0.30;;;24.90;62.80;;;;;;5025196;28;20936;-77
2023/05/16 12:12:50;;;;;;;0.50;0.30;;;25.00;61.50;;;;;;5024525;28;20457;-77
2023/05/16 12:15:18;;;;;;;0.60;0.50;;;25.60;62.30;;;;;;5021574;28;20925;-77
2023/05/16 12:17:46;;;;;;;0.50;0.30;;;26.00;58.30;;;;;;5029578;28;20458;-77
2023/05/16 12:20:15;;;;;;;3.80;0.57;;;26.10;58.30;;;;;;5009075;28;20478;-77
2023/05/16 12:22:43;;;;;;;0.50;0.30;;;26.20;56.90;;;;;;5024589;28;20486;-77
2023/05/16 12:25:25;;;;;;;0.50;0.30;;;26.40;55.20;;;;;;5021846;28;20532;-77
2023/05/16 12:27:53;;;;;;;1.20;1.00;;;25.60;55.90;;;;;;5021666;28;21001;-77
2023/05/16 12:30:23;;;;;;;8.23;7.60;;;25.40;58.50;;;;;;5024806;28;20438;-77
2023/05/16 12:32:53;;;;;;;0.50;0.30;;;25.40;59.60;;;;;;5023936;28;20450;-77
2023/05/16 12:35:20;;;;;;;0.50;0.30;;;24.70;57.30;;;;;;5021160;28;20443;-77
2023/05/16 12:37:47;;;;;;;0.50;0.30;;;23.70;56.60;;;;;;5021187;28;20470;-77
2023/05/16 12:40:14;;;;;;;0.50;0.30;;;22.80;57.50;;;;;;5013079;28;20474;-77
2023/05/16 12:42:44;;;;;;;0.50;0.30;;;21.90;61.10;;;;;;5020792;28;20453;-77
2023/05/16 12:45:15;;;;;;;0.50;0.30;;;21.80;64.50;;;;;;5023891;28;20809;-77
2023/05/16 12:47:42;;;;;;;1.23;0.50;;;21.70;58.90;;;;;;5024389;28;20462;-76
2023/05/16 12:50:12;;;;;;;0.70;0.40;;;22.70;59.20;;;;;;5020664;28;20443;-77
2023/05/16 12:52:47;;;;;;;0.50;0.30;;;23.10;58.30;;;;;;5020682;28;20456;-77
2023/05/16 12:55:14;;;;;;;0.70;0.60;;;24.20;58.60;;;;;;5024081;28;20441;-77